Time;durP1;ratioP1;P1;durP2;ratioP2;P2;SDS_P1;SDS_P2;PMS_P1;PMS_P2;Temp;Humidity;BMP_temperature;BMP_pressure;BME280_temperature;BME280_humidity;BME280_pressure;Samples;Min_cycle;Max_cycle;Signal;HPM_P1;HPM_P2
2022/10/06 00:02:18;;;;;;;15.13;6.57;;;;;;;8.76;89.83;96056.66;5112830;28;20187;-81
2022/10/06 00:04:44;;;;;;;15.00;7.93;;;;;;;8.82;89.11;96066.50;5112735;28;20176;-81
2022/10/06 00:07:09;;;;;;;18.23;7.20;;;;;;;8.46;88.60;96016.25;5094466;28;20173;-81
2022/10/06 00:09:35;;;;;;;16.47;7.67;;;;;;;8.83;89.05;96073.38;5112776;28;20169;-81
2022/10/06 00:12:00;;;;;;;16.87;7.93;;;;;;;8.81;88.62;96060.44;5112706;28;20714;-80
2022/10/06 00:14:26;;;;;;;18.70;8.30;;;;;;;8.80;87.82;96052.72;5112728;28;20659;-81
2022/10/06 00:16:52;;;;;;;16.63;7.30;;;;;;;8.91;87.58;96061.03;5112585;28;20234;-81
2022/10/06 00:19:17;;;;;;;13.00;6.93;;;;;;;8.77;87.84;96037.28;5112491;28;20248;-80
2022/10/06 00:21:42;;;;;;;9.13;6.23;;;;;;;8.93;87.01;96064.31;5112378;28;20280;-80
2022/10/06 00:24:08;;;;;;;12.63;7.60;;;;;;;8.86;87.29;96058.09;5112256;28;20244;-80
2022/10/06 00:26:33;;;;;;;13.27;7.00;;;;;;;8.87;87.44;96058.91;5112365;28;20173;-80
2022/10/06 00:28:59;;;;;;;12.70;6.90;;;;;;;8.90;87.41;96056.78;5112157;28;20169;-80
2022/10/06 00:31:25;;;;;;;12.97;6.33;;;;;;;8.60;87.17;96018.16;5112666;28;20165;-80
2022/10/06 00:33:50;;;;;;;14.23;7.20;;;;;;;8.79;87.01;96043.19;5112044;28;20177;-80
2022/10/06 00:36:16;;;;;;;14.20;6.87;;;;;;;8.85;87.38;96053.00;5112286;28;20168;-80
2022/10/06 00:38:41;;;;;;;14.10;6.60;;;;;;;8.81;87.31;96051.72;5112157;28;20579;-80
2022/10/06 00:41:11;;;;;;;10.77;6.87;;;;;;;8.84;87.25;96054.00;5112500;28;20176;-80
2022/10/06 00:43:48;;;;;;;13.33;7.40;;;;;;;8.80;87.10;96042.22;5108165;28;20727;-80
2022/10/06 00:46:17;;;;;;;10.73;6.37;;;;;;;8.72;86.94;96042.25;5097335;28;20221;-80
2022/10/06 00:48:45;;;;;;;12.37;7.10;;;;;;;8.66;87.40;96039.28;5091821;28;20584;-80
2022/10/06 00:51:11;;;;;;;11.47;7.03;;;;;;;8.67;87.77;96040.94;5073488;28;20560;-80
2022/10/06 00:53:37;;;;;;;17.97;7.47;;;;;;;8.36;87.74;95989.38;5091639;28;20194;-80
2022/10/06 00:56:02;;;;;;;12.40;6.57;;;;;;;8.63;87.46;96020.47;5091839;28;20527;-80
2022/10/06 00:58:28;;;;;;;11.67;6.57;;;;;;;8.39;87.32;95981.97;5091710;28;20174;-80
2022/10/06 01:00:54;;;;;;;10.30;6.93;;;;;;;8.40;87.59;95982.81;5091513;28;20170;-80
2022/10/06 01:03:20;;;;;;;13.73;6.93;;;;;;;8.65;87.15;96023.72;5095542;28;20165;-80
2022/10/06 01:05:48;;;;;;;15.60;7.40;;;;;;;8.62;87.35;96024.91;5095951;28;20170;-80
2022/10/06 01:08:15;;;;;;;17.20;7.20;;;;;;;8.35;87.40;95978.06;5098937;28;20737;-80
2022/10/06 01:10:41;;;;;;;17.60;8.37;;;;;;;8.56;87.59;96017.69;5083325;28;20658;-80
2022/10/06 01:13:09;;;;;;;17.53;8.07;;;;;;;8.17;87.20;95956.47;5101356;28;20181;-79
2022/10/06 01:15:40;;;;;;;19.57;9.47;;;;;;;8.17;87.32;95956.47;5096321;28;20213;-79
2022/10/06 01:18:12;;;;;;;15.90;7.60;;;;;;;8.47;87.48;96008.22;5101598;28;20172;-79
2022/10/06 01:20:44;;;;;;;15.60;7.87;;;;;;;7.78;87.14;95899.56;5101946;28;20181;-80
2022/10/06 01:23:10;;;;;;;15.33;9.17;;;;;;;8.00;87.17;95937.34;5094236;28;20169;-80
2022/10/06 01:25:36;;;;;;;18.40;9.30;;;;;;;7.36;86.80;95818.56;5100177;28;20167;-80
2022/10/06 01:28:05;;;;;;;15.00;9.90;;;;;;;7.39;86.84;95827.91;5095327;28;20181;-80
2022/10/06 01:30:38;;;;;;;16.00;9.60;;;;;;;7.90;86.82;95908.69;5095061;28;20685;-80
2022/10/06 01:33:04;;;;;;;19.45;10.73;;;;;;;7.76;86.93;95887.59;5093978;28;20466;-79
2022/10/06 01:35:29;;;;;;;26.23;12.83;;;;;;;7.31;86.57;95815.63;5095842;28;20174;-80
2022/10/06 01:37:57;;;;;;;50.37;23.47;;;;;;;7.43;86.98;95832.66;5094225;28;20518;-79
2022/10/06 01:40:25;;;;;;;43.03;19.83;;;;;;;7.48;87.07;95847.84;5094063;28;20408;-80
2022/10/06 01:42:51;;;;;;;47.77;20.93;;;;;;;7.26;86.33;95806.66;5095364;28;20157;-79
2022/10/06 01:45:17;;;;;;;45.50;19.27;;;;;;;7.27;86.09;95809.09;5097244;28;20296;-80
2022/10/06 01:47:43;;;;;;;36.40;15.97;;;;;;;8.48;86.49;96003.75;5095025;28;20162;-80
2022/10/06 01:50:08;;;;;;;33.37;15.73;;;;;;;7.99;86.42;95916.53;5095214;28;20198;-79
2022/10/06 01:52:35;;;;;;;25.33;13.57;;;;;;;8.05;86.48;95923.69;5095003;28;20236;-79
2022/10/06 01:55:00;;;;;;;32.97;14.80;;;;;;;7.94;86.31;95912.63;5093671;28;20408;-80
2022/10/06 01:57:26;;;;;;;30.57;14.97;;;;;;;8.07;87.10;95956.66;5093741;28;20402;-80
2022/10/06 01:59:52;;;;;;;21.10;10.90;;;;;;;7.94;86.68;95935.38;5077061;28;20192;-80
2022/10/06 02:02:18;;;;;;;25.02;13.35;;;;;;;7.33;86.18;95833.81;5093562;28;20412;-79
2022/10/06 02:04:47;;;;;;;25.23;10.83;;;;;;;7.39;86.03;95835.75;5094676;28;20172;-79
2022/10/06 02:07:12;;;;;;;21.17;12.52;;;;;;;7.99;85.96;95927.81;5102387;28;20415;-80
2022/10/06 02:09:40;;;;;;;20.80;11.70;;;;;;;7.38;85.99;95836.72;5102636;28;20779;-80
2022/10/06 02:12:07;;;;;;;16.43;10.30;;;;;;;7.41;85.82;95842.47;5094471;28;20276;-80
2022/10/06 02:14:33;;;;;;;26.57;10.80;;;;;;;7.51;85.83;95855.38;5074972;28;20664;-80
2022/10/06 02:16:59;;;;;;;21.95;12.48;;;;;;;7.35;86.14;95826.63;5093308;28;20487;-79
2022/10/06 02:19:27;;;;;;;16.40;9.73;;;;;;;7.69;85.90;95886.63;5094483;28;20328;-79
2022/10/06 02:21:53;;;;;;;16.83;10.07;;;;;;;7.32;85.52;95825.13;5094285;28;20178;-79
2022/10/06 02:24:19;;;;;;;16.47;9.30;;;;;;;7.90;85.84;95932.28;5094167;28;20688;-78
2022/10/06 02:26:44;;;;;;;18.80;10.30;;;;;;;8.02;86.00;95958.16;5094296;28;20720;-80
2022/10/06 02:29:09;;;;;;;18.17;11.70;;;;;;;8.32;86.29;95999.38;5094264;28;20174;-80
2022/10/06 02:31:35;;;;;;;16.83;10.37;;;;;;;8.32;86.20;96002.84;5093966;28;20204;-80
2022/10/06 02:34:01;;;;;;;22.60;11.17;;;;;;;8.06;86.20;95962.06;5094413;28;20162;-80
2022/10/06 02:36:26;;;;;;;20.47;10.53;;;;;;;8.27;86.24;95992.00;5094143;28;20170;-79
2022/10/06 02:38:52;;;;;;;23.90;11.27;;;;;;;8.23;86.05;96003.81;5094080;28;20644;-80
2022/10/06 02:41:17;;;;;;;24.10;10.93;;;;;;;8.11;86.20;95992.06;5094393;28;20166;-80
2022/10/06 02:43:42;;;;;;;18.47;10.20;;;;;;;8.14;86.20;95996.13;5094566;28;20169;-80
2022/10/06 02:46:12;;;;;;;19.13;10.80;;;;;;;8.11;86.75;96007.78;5093948;28;20217;-80
2022/10/06 02:48:39;;;;;;;23.70;11.33;;;;;;;7.81;86.48;95961.28;5075779;28;20170;-79
2022/10/06 02:51:08;;;;;;;18.13;9.83;;;;;;;8.13;86.72;96005.78;5085075;28;20559;-80
2022/10/06 02:53:35;;;;;;;16.57;10.10;;;;;;;8.09;86.75;96011.56;5093716;28;20197;-80
2022/10/06 02:56:17;;;;;;;15.17;9.60;;;;;;;8.04;87.14;96006.81;5093627;28;20257;-80
2022/10/06 02:58:44;;;;;;;21.20;9.93;;;;;;;8.06;86.98;96004.00;5085487;28;20236;-80
2022/10/06 03:01:15;;;;;;;17.67;9.53;;;;;;;8.07;87.20;96008.28;5093693;28;20174;-79
2022/10/06 03:03:41;;;;;;;19.60;9.63;;;;;;;8.02;86.68;96006.16;5093642;28;20174;-79
2022/10/06 03:06:25;;;;;;;19.13;10.30;;;;;;;8.02;86.80;96002.72;5066719;28;20544;-79
2022/10/06 03:08:53;;;;;;;19.73;9.67;;;;;;;8.02;86.83;96007.97;5093479;28;20181;-79
2022/10/06 03:11:22;;;;;;;16.77;8.20;;;;;;;8.02;86.55;96007.97;5092885;28;20668;-79
2022/10/06 03:13:48;;;;;;;18.53;9.70;;;;;;;7.96;86.81;96006.81;5092862;28;20197;-79
2022/10/06 03:16:23;;;;;;;15.13;9.57;;;;;;;7.91;87.20;96002.06;5093115;28;20161;-79
2022/10/06 03:18:50;;;;;;;23.67;9.87;;;;;;;7.88;86.89;96007.63;5090990;28;21033;-79
2022/10/06 03:21:21;;;;;;;20.03;10.30;;;;;;;7.87;87.39;96006.00;5090014;28;20896;-79
2022/10/06 03:23:47;;;;;;;25.10;13.20;;;;;;;7.58;87.30;95959.34;5088220;28;20178;-79
2022/10/06 03:26:16;;;;;;;54.40;30.60;;;;;;;7.72;87.37;95986.69;5089378;28;20178;-80
2022/10/06 03:28:43;;;;;;;75.43;37.63;;;;;;;7.83;87.30;95990.78;5092844;28;20193;-80
2022/10/06 03:31:08;;;;;;;53.60;29.63;;;;;;;7.62;87.60;95959.81;5090447;28;20162;-80
2022/10/06 03:33:34;;;;;;;41.60;23.10;;;;;;;7.89;86.97;96000.59;5092488;28;20259;-80
2022/10/06 03:36:05;;;;;;;41.63;22.13;;;;;;;7.85;87.10;95994.88;5092555;28;20200;-80
2022/10/06 03:38:32;;;;;;;38.23;22.17;;;;;;;7.82;87.35;95992.56;5083960;28;20174;-80
2022/10/06 03:41:14;;;;;;;34.23;18.90;;;;;;;7.86;87.31;95998.31;5087089;28;20174;-80
2022/10/06 03:43:42;;;;;;;26.37;16.50;;;;;;;7.76;87.00;95977.53;5092702;28;20166;-80
2022/10/06 03:46:10;;;;;;;22.27;13.47;;;;;;;7.62;86.98;95948.53;5102693;28;20212;-80
2022/10/06 03:48:36;;;;;;;30.93;14.60;;;;;;;7.59;86.77;95939.22;5113145;28;20643;-79
2022/10/06 03:51:07;;;;;;;30.03;17.67;;;;;;;7.87;86.48;95995.50;5112906;28;20195;-80
2022/10/06 03:53:35;;;;;;;21.70;14.30;;;;;;;7.84;87.13;95995.03;5111433;28;20193;-80
2022/10/06 03:56:05;;;;;;;26.43;14.97;;;;;;;7.81;86.78;95985.69;5112994;28;20663;-80
2022/10/06 03:58:33;;;;;;;25.57;15.87;;;;;;;7.85;87.31;95989.63;5112807;28;20181;-80
2022/10/06 04:01:03;;;;;;;24.80;15.20;;;;;;;7.85;86.95;95992.25;5108096;28;20750;-80
2022/10/06 04:03:28;;;;;;;28.33;14.83;;;;;;;7.83;87.47;95998.66;5109573;28;20195;-80
2022/10/06 04:05:56;;;;;;;27.33;14.27;;;;;;;7.79;87.79;95998.13;5112771;28;20184;-80
2022/10/06 04:08:25;;;;;;;21.87;11.73;;;;;;;7.76;87.68;95993.25;5112458;28;20655;-80
2022/10/06 04:10:51;;;;;;;23.27;11.33;;;;;;;7.76;87.47;95993.25;5111969;28;20168;-81
2022/10/06 04:13:18;;;;;;;18.57;9.90;;;;;;;7.62;88.08;95993.88;5100758;28;20193;-80
2022/10/06 04:15:45;;;;;;;17.50;9.10;;;;;;;7.62;87.90;95996.50;5109329;28;20181;-80
2022/10/06 04:18:11;;;;;;;17.13;9.60;;;;;;;7.38;88.05;95947.56;5111920;28;20172;-81
2022/10/06 04:20:37;;;;;;;15.20;9.27;;;;;;;7.57;87.77;95988.34;5112755;28;20181;-80
2022/10/06 04:23:04;;;;;;;18.13;10.93;;;;;;;7.65;87.75;95996.19;5108987;28;20231;-81
2022/10/06 04:25:30;;;;;;;26.80;14.40;;;;;;;7.67;87.71;95996.84;5097723;28;20158;-81
2022/10/06 04:27:56;;;;;;;31.90;18.73;;;;;;;7.63;87.74;95998.16;5112018;28;20176;-80
2022/10/06 04:30:22;;;;;;;35.03;17.57;;;;;;;7.24;87.37;95937.75;5112590;28;20157;-80
2022/10/06 04:32:48;;;;;;;37.70;17.10;;;;;;;7.62;87.78;96000.94;5112343;28;20211;-80
2022/10/06 04:35:13;;;;;;;32.40;18.50;;;;;;;7.60;87.82;96008.16;5112581;28;20640;-80
2022/10/06 04:37:39;;;;;;;33.23;17.13;;;;;;;7.65;87.77;96000.63;5119297;27;20176;-80
2022/10/06 04:40:05;;;;;;;33.97;18.60;;;;;;;7.64;87.88;96005.03;5112375;28;20169;-80
2022/10/06 04:42:30;;;;;;;31.03;16.67;;;;;;;7.69;87.10;96002.75;5112422;28;20250;-80
2022/10/06 04:44:56;;;;;;;29.03;15.30;;;;;;;7.68;87.14;96001.13;5111925;28;20249;-80
2022/10/06 04:47:21;;;;;;;28.60;14.60;;;;;;;7.71;86.71;95999.94;5084453;28;20185;-80
2022/10/06 04:49:47;;;;;;;55.73;15.60;;;;;;;7.71;86.95;96000.78;5102820;28;20168;-80
2022/10/06 04:52:12;;;;;;;35.23;15.50;;;;;;;7.71;86.94;96002.56;5102237;28;20671;-80
2022/10/06 04:54:37;;;;;;;27.53;14.53;;;;;;;7.58;87.57;95993.41;5100657;28;20181;-81
2022/10/06 04:57:04;;;;;;;26.77;15.40;;;;;;;7.75;87.50;96017.00;5091900;28;20184;-81
2022/10/06 05:02:14;;;;;;;25.80;13.90;;;;;;;7.82;87.09;96008.31;5091751;28;20694;-81
2022/10/06 05:04:39;;;;;;;26.60;12.67;;;;;;;7.83;87.53;96004.72;5091698;28;20166;-82
2022/10/06 05:07:05;;;;;;;26.43;11.27;;;;;;;7.59;87.38;95962.78;5097260;28;20193;-81
2022/10/06 05:09:30;;;;;;;24.00;11.53;;;;;;;7.84;87.62;95984.56;5091776;28;20231;-80
2022/10/06 05:11:57;;;;;;;21.10;9.73;;;;;;;7.93;87.76;96000.09;5091842;28;20236;-81
2022/10/06 05:14:23;;;;;;;24.73;12.90;;;;;;;8.17;87.73;96029.91;5091794;28;20177;-80
2022/10/06 05:16:48;;;;;;;25.10;11.30;;;;;;;8.13;87.68;95995.31;5092488;28;20181;-80
2022/10/06 05:19:14;;;;;;;22.17;11.13;;;;;;;8.47;87.06;96016.09;5073811;28;20170;-80
2022/10/06 05:21:39;;;;;;;21.40;11.80;;;;;;;8.83;86.15;96020.84;5091559;28;20184;-81
2022/10/06 05:24:05;;;;;;;13.80;7.20;;;;;;;9.01;85.23;96008.28;5073305;28;20256;-80
2022/10/06 05:26:32;;;;;;;17.30;7.13;;;;;;;9.32;84.99;96014.38;5091462;28;20174;-80
2022/10/06 05:28:58;;;;;;;14.97;7.47;;;;;;;9.60;83.77;96016.47;5091513;28;20649;-82
2022/10/06 05:31:32;;;;;;;19.87;8.53;;;;;;;9.63;82.47;95956.47;5091563;28;20224;-83
2022/10/06 05:33:58;;;;;;;12.73;7.73;;;;;;;10.56;81.53;96019.19;5091531;28;20288;-81
2022/10/06 05:36:29;;;;;;;17.43;7.93;;;;;;;10.92;78.83;96019.28;5091424;28;20260;-82
2022/10/06 05:38:56;;;;;;;13.93;7.17;;;;;;;11.17;77.41;96012.69;5073413;28;20173;-80
2022/10/06 05:41:22;;;;;;;16.57;7.73;;;;;;;11.57;76.25;96021.03;5091312;28;20201;-82
2022/10/06 05:43:48;;;;;;;15.47;8.37;;;;;;;11.96;74.99;95988.94;5094999;28;20162;-84
2022/10/06 05:46:19;;;;;;;11.27;7.20;;;;;;;12.80;72.59;96016.06;5117163;28;20217;-82
2022/10/06 05:48:48;;;;;;;12.83;7.87;;;;;;;13.30;69.82;96029.97;5109547;27;20169;-82
2022/10/06 05:51:15;;;;;;;13.40;6.83;;;;;;;13.63;68.68;96032.69;5120849;27;20181;-82
2022/10/06 05:53:40;;;;;;;15.03;7.47;;;;;;;13.82;67.84;96040.69;5114443;28;20196;-81
2022/10/06 05:56:15;;;;;;;15.97;5.83;;;;;;;14.09;67.68;96043.34;5111708;28;20230;-81
2022/10/06 05:58:46;;;;;;;8.00;5.10;;;;;;;14.44;65.69;96034.22;5112405;28;20629;-81
2022/10/06 06:01:17;;;;;;;9.73;5.27;;;;;;;15.12;64.23;96050.56;5115329;28;20244;-81
2022/10/06 06:03:49;;;;;;;13.27;6.13;;;;;;;15.72;62.30;96041.34;5091211;28;20261;-81
2022/10/06 06:06:39;;;;;;;10.30;5.20;;;;;;;16.50;59.72;96044.44;5113876;28;20560;-81
2022/10/06 06:09:06;;;;;;;14.83;5.10;;;;;;;17.14;57.86;96051.19;5106447;28;20656;-80
2022/10/06 06:11:33;;;;;;;15.53;5.27;;;;;;;17.60;57.18;96049.81;5114802;28;20185;-81
2022/10/06 06:14:18;;;;;;;10.00;5.38;;;;;;;18.10;54.66;96011.19;5114797;28;20417;-81
2022/10/06 06:16:44;;;;;;;11.75;5.32;;;;;;;18.99;52.24;96033.28;5106313;28;20656;-80
2022/10/06 06:19:10;;;;;;;10.63;5.70;;;;;;;19.87;49.67;96048.19;5114646;28;20165;-80
2022/10/06 06:21:36;;;;;;;14.18;6.13;;;;;;;19.95;49.27;96035.25;5114643;28;20173;-80
2022/10/06 06:24:02;;;;;;;17.42;7.13;;;;;;;20.67;48.19;96038.03;5114783;28;20650;-80
2022/10/06 06:26:30;;;;;;;14.43;7.53;;;;;;;21.39;46.96;96053.25;5114749;28;20200;-80
2022/10/06 06:29:04;;;;;;;11.43;5.90;;;;;;;22.25;45.79;96050.75;5114235;28;20218;-81
2022/10/06 06:31:32;;;;;;;12.50;6.75;;;;;;;23.03;44.05;96058.09;5096938;28;20196;-81
2022/10/06 06:33:59;;;;;;;12.32;5.95;;;;;;;23.46;42.30;96043.53;5114913;28;20684;-80
2022/10/06 06:36:27;;;;;;;19.08;6.28;;;;;;;23.76;41.08;96025.94;5114543;28;20164;-82
2022/10/06 06:38:54;;;;;;;9.60;5.75;;;;;;;24.20;40.78;96054.03;5114475;28;20268;-84
2022/10/06 06:41:21;;;;;;;15.85;7.20;;;;;;;24.63;39.63;96054.63;5096365;28;20225;-83
2022/10/06 06:43:47;;;;;;;10.93;5.97;;;;;;;24.67;39.03;96002.63;5114626;28;20164;-82
2022/10/06 06:46:14;;;;;;;11.85;6.32;;;;;;;24.84;39.06;96056.22;5114125;28;20223;-82
2022/10/06 06:48:40;;;;;;;13.75;5.22;;;;;;;24.94;38.71;96050.03;5096005;28;20663;-82
2022/10/06 06:51:07;;;;;;;8.77;4.90;;;;;;;24.55;38.91;96055.97;5114265;28;20236;-82
2022/10/06 06:53:33;;;;;;;12.02;6.15;;;;;;;24.03;39.91;96019.28;5114159;28;20215;-83
2022/10/06 06:55:59;;;;;;;9.55;5.63;;;;;;;23.80;40.23;96051.22;5095859;28;20571;-82
2022/10/06 06:58:24;;;;;;;10.85;5.47;;;;;;;23.11;40.82;96011.13;5113917;28;20153;-82
2022/10/06 07:00:50;;;;;;;7.22;4.70;;;;;;;22.82;41.40;95994.59;5113287;28;20662;-82
2022/10/06 07:03:20;;;;;;;11.90;4.95;;;;;;;22.46;41.86;96012.28;5114247;28;20149;-81
2022/10/06 07:05:46;;;;;;;9.38;5.65;;;;;;;21.31;44.96;96008.97;5114043;28;20277;-82
2022/10/06 07:08:14;;;;;;;8.20;5.50;;;;;;;21.02;46.48;96037.75;5113969;28;20643;-81
2022/10/06 07:10:42;;;;;;;12.77;5.55;;;;;;;21.04;45.95;96034.81;5095557;28;20567;-82
2022/10/06 07:13:13;;;;;;;12.10;5.85;;;;;;;20.93;45.86;96038.44;5113930;28;20184;-82
2022/10/06 07:26:37;;;;;;;7.22;5.18;;;;;;;20.53;48.36;95998.50;5113104;28;20215;-82
2022/10/06 07:29:03;;;;;;;10.20;5.00;;;;;;;20.45;48.76;96018.44;5113642;28;20922;-81
2022/10/06 07:31:32;;;;;;;10.90;5.60;;;;;;;20.14;49.55;96018.97;5113519;28;20157;-81
2022/10/06 07:34:02;;;;;;;18.73;4.35;;;;;;;19.84;50.43;96004.03;5113370;28;21120;-80
2022/10/06 07:36:29;;;;;;;11.57;4.95;;;;;;;19.63;49.70;95967.31;5113554;28;20553;-80
2022/10/06 07:38:54;;;;;;;7.63;5.00;;;;;;;19.54;50.01;95968.75;5113147;28;20157;-81
2022/10/06 07:41:20;;;;;;;10.85;4.97;;;;;;;19.76;50.11;96001.75;5093043;28;20166;-81
2022/10/06 07:43:46;;;;;;;7.38;4.68;;;;;;;19.26;51.51;95953.50;5092866;28;20205;-81
2022/10/06 07:46:12;;;;;;;14.15;4.82;;;;;;;18.91;51.08;95972.28;5092758;28;20218;-81
2022/10/06 07:48:38;;;;;;;19.48;5.70;;;;;;;18.51;53.22;95988.16;5092952;28;20571;-82
2022/10/06 07:51:11;;;;;;;11.57;5.68;;;;;;;18.79;53.22;96008.81;5092397;28;20177;-81
2022/10/06 07:53:37;;;;;;;10.38;6.40;;;;;;;18.83;52.43;96015.34;5092842;28;20220;-80
2022/10/06 07:56:05;;;;;;;8.80;5.50;;;;;;;18.74;52.16;95976.72;5093243;28;20170;-79
2022/10/06 07:58:31;;;;;;;12.13;6.03;;;;;;;19.08;52.13;96015.88;5092694;28;20174;-79
2022/10/06 08:01:07;;;;;;;15.20;6.07;;;;;;;19.24;51.33;96022.34;5092749;28;20242;-79
2022/10/06 08:03:32;;;;;;;8.52;5.38;;;;;;;19.29;51.50;96008.25;5093774;28;20177;-80
2022/10/06 08:06:00;;;;;;;12.40;4.88;;;;;;;19.51;53.14;96012.75;5092387;28;20728;-80
2022/10/06 08:08:28;;;;;;;10.27;6.47;;;;;;;19.76;50.95;96012.44;5092721;28;20161;-80
2022/10/06 08:10:55;;;;;;;11.68;6.53;;;;;;;19.70;49.37;96009.91;5092548;28;20193;-80
2022/10/06 08:13:21;;;;;;;13.23;6.30;;;;;;;19.73;51.73;96007.56;5092496;28;20664;-81
2022/10/06 08:15:49;;;;;;;10.35;5.95;;;;;;;19.89;52.34;96012.13;5074423;28;20164;-82
2022/10/06 08:18:15;;;;;;;15.55;6.35;;;;;;;19.84;50.62;96012.03;5092232;28;20162;-80
2022/10/06 08:20:41;;;;;;;9.85;6.05;;;;;;;19.88;50.02;96018.53;5092462;28;20154;-80
2022/10/06 08:23:11;;;;;;;16.55;5.90;;;;;;;19.74;49.55;96009.19;5094901;28;20165;-79
2022/10/06 08:25:42;;;;;;;13.43;6.15;;;;;;;19.83;50.74;96009.59;5111109;28;20557;-80
2022/10/06 08:28:08;;;;;;;16.40;7.35;;;;;;;19.96;49.80;96002.09;5111259;28;20630;-79
2022/10/06 08:30:34;;;;;;;10.23;6.85;;;;;;;19.76;49.16;96004.41;5110954;28;20188;-80
2022/10/06 08:32:59;;;;;;;18.33;6.82;;;;;;;19.55;51.33;95989.03;5110279;28;20679;-79
2022/10/06 08:35:25;;;;;;;15.60;7.93;;;;;;;19.78;50.38;95998.84;5109990;28;20165;-80
2022/10/06 08:37:52;;;;;;;14.63;7.28;;;;;;;19.76;49.64;95956.31;5108937;28;20563;-86
2022/10/06 08:40:18;;;;;;;20.73;7.30;;;;;;;20.03;49.29;95975.22;5094528;28;20169;-82
2022/10/06 08:42:49;;;;;;;21.83;7.50;;;;;;;19.86;47.89;95950.31;5112783;28;20196;-81
2022/10/06 08:45:37;;;;;;;17.85;6.13;;;;;;;20.26;49.98;95993.75;5112747;28;20164;-80
2022/10/06 08:48:08;;;;;;;15.25;6.55;;;;;;;20.29;47.88;95987.94;5092116;28;20716;-81
2022/10/06 08:50:51;;;;;;;14.18;7.40;;;;;;;19.77;47.95;95938.41;5089009;28;20176;-81
2022/10/06 08:53:31;;;;;;;13.10;6.13;;;;;;;;;;5087253;28;20186;-80
2022/10/06 08:56:29;;;;;;;10.77;6.93;;;;;;;19.72;48.77;95984.53;5082262;28;20212;-80
2022/10/06 08:58:57;;;;;;;15.02;6.57;;;;;;;19.49;50.99;95995.34;5042592;28;20649;-80
2022/10/06 09:01:29;;;;;;;18.48;6.30;;;;;;;19.43;50.41;95994.41;5091795;28;20549;-80
2022/10/06 09:04:00;;;;;;;12.73;5.93;;;;;;;19.23;49.97;95961.97;5091646;28;20177;-81
2022/10/06 09:06:51;;;;;;;13.70;6.53;;;;;;;19.44;51.45;95992.56;5073833;28;20568;-82
2022/10/06 09:09:28;;;;;;;17.85;6.53;;;;;;;19.81;51.03;95988.44;5069576;28;20257;-80
2022/10/06 09:12:05;;;;;;;18.02;6.63;;;;;;;19.76;49.98;95961.66;5091881;28;20675;-81
2022/10/06 09:14:38;;;;;;;14.88;7.07;;;;;;;20.01;51.05;95987.19;5073678;28;20174;-81
2022/10/06 09:17:10;;;;;;;11.70;6.50;;;;;;;19.98;51.22;95977.78;5091586;28;20165;-82
2022/10/06 09:19:44;;;;;;;11.55;6.18;;;;;;;20.04;50.72;95971.50;5091218;28;21021;-83
2022/10/06 09:22:21;;;;;;;14.60;6.13;;;;;;;20.14;48.48;95978.88;5082941;28;20162;-82
2022/10/06 09:24:50;;;;;;;8.95;5.63;;;;;;;19.79;50.41;95930.97;5092093;28;20266;-82
2022/10/06 09:27:29;;;;;;;8.75;6.15;;;;;;;20.04;48.42;95959.97;5096621;28;20170;-82
2022/10/06 09:29:54;;;;;;;12.38;6.03;;;;;;;19.75;49.14;95925.28;5095501;28;20632;-81
2022/10/06 09:32:22;;;;;;;14.73;5.65;;;;;;;20.01;50.04;95976.50;5095249;28;20189;-81
2022/10/06 09:34:51;;;;;;;15.40;7.00;;;;;;;20.00;48.50;95972.19;5095415;28;20265;-82
2022/10/06 09:37:17;;;;;;;12.95;6.80;;;;;;;20.05;50.64;95956.25;5100654;28;20185;-80
2022/10/06 09:39:49;;;;;;;11.02;6.70;;;;;;;20.07;50.55;95957.63;5110088;28;20223;-81
2022/10/06 09:42:28;;;;;;;18.42;6.28;;;;;;;19.87;51.31;95907.31;5098341;28;20162;-82
2022/10/06 09:45:23;;;;;;;10.00;6.07;;;;;;;20.24;50.12;95955.75;5095264;28;20150;-86
2022/10/06 09:47:49;;;;;;;9.38;5.70;;;;;;;20.24;51.36;95946.91;5108207;28;20716;-83
2022/10/06 09:50:22;;;;;;;15.93;6.40;;;;;;;20.17;47.85;95925.69;5085149;28;20177;-80
2022/10/06 09:52:58;;;;;;;14.23;6.05;;;;;;;20.26;48.58;95952.84;5099140;28;20221;-81
2022/10/06 09:55:28;;;;;;;8.77;5.60;;;;;;;20.09;50.31;95954.69;5094976;28;20175;-80
2022/10/06 09:57:56;;;;;;;11.50;6.07;;;;;;;19.73;47.67;95935.41;5101317;28;20165;-80
2022/10/06 10:00:37;;;;;;;16.52;5.80;;;;;;;19.34;51.26;95922.91;5094747;28;20181;-80
2022/10/06 10:03:24;;;;;;;8.52;5.32;;;;;;;19.16;51.73;95948.75;5094002;28;20675;-80
2022/10/06 10:05:53;;;;;;;8.43;4.95;;;;;;;19.17;53.00;95947.72;5094964;28;20521;-80
2022/10/06 10:08:29;;;;;;;9.52;5.68;;;;;;;19.24;54.62;95944.91;5103474;28;20189;-81
2022/10/06 10:11:06;;;;;;;9.02;5.85;;;;;;;19.48;54.19;95942.97;5103119;28;20631;-81
2022/10/06 10:13:41;;;;;;;11.73;6.03;;;;;;;19.66;49.89;95932.06;5094179;28;20193;-81
2022/10/06 10:16:09;;;;;;;10.63;5.13;;;;;;;19.46;48.97;95897.75;5075592;28;20193;-82
2022/10/06 10:18:35;;;;;;;7.30;4.40;;;;;;;19.50;48.64;95901.63;5096899;28;20229;-82
2022/10/06 10:21:09;;;;;;;8.68;4.93;;;;;;;19.66;47.97;95933.94;5077652;28;20600;-83
2022/10/06 10:23:54;;;;;;;10.20;4.63;;;;;;;19.55;49.39;95935.59;5097105;28;20173;-82
2022/10/06 10:26:25;;;;;;;9.05;4.28;;;;;;;19.51;49.07;95932.63;5100266;28;20574;-82
2022/10/06 10:29:01;;;;;;;5.22;3.42;;;;;;;19.50;48.40;95927.50;5094768;28;20181;-83
2022/10/06 10:32:18;;;;;;;4.95;2.65;;;;;;;19.37;51.01;95893.06;5079358;28;20176;-83
2022/10/06 10:35:07;;;;;;;11.50;3.78;;;;;;;19.57;49.36;95918.31;5063611;28;20193;-82
2022/10/06 10:37:35;;;;;;;5.78;3.78;;;;;;;19.60;50.64;95911.66;5086369;28;20256;-82
2022/10/06 10:40:09;;;;;;;10.35;4.35;;;;;;;19.64;51.21;95917.31;5096585;28;20203;-83
2022/10/06 10:42:36;;;;;;;7.97;4.30;;;;;;;19.69;51.55;95912.91;5086580;28;20212;-82
2022/10/06 10:45:06;;;;;;;9.70;3.72;;;;;;;19.56;51.43;95876.59;5094092;28;20170;-82
2022/10/06 10:47:34;;;;;;;7.97;5.20;;;;;;;19.78;47.20;95906.09;5091080;28;20277;-82
2022/10/06 10:50:19;;;;;;;15.25;4.75;;;;;;;19.65;46.76;95898.38;5113079;28;20824;-83
2022/10/06 10:52:48;;;;;;;7.35;4.20;;;;;;;19.66;48.17;95902.69;5112463;28;20185;-82
2022/10/06 10:55:40;;;;;;;4.40;3.45;;;;;;;19.53;46.89;95879.78;5112551;28;20169;-82
2022/10/06 10:58:15;;;;;;;7.80;3.28;;;;;;;19.62;47.93;95893.53;5106221;28;20214;-83
2022/10/06 11:00:45;;;;;;;8.27;3.30;;;;;;;19.36;48.03;95859.41;5112247;28;20236;-82
2022/10/06 11:03:11;;;;;;;8.55;3.10;;;;;;;19.56;46.89;95897.97;5112391;28;20309;-82
2022/10/06 11:05:45;;;;;;;8.52;3.20;;;;;;;19.61;47.63;95883.09;5112298;28;20267;-83
2022/10/06 11:08:35;;;;;;;5.18;2.92;;;;;;;19.63;45.77;95881.81;5093952;28;20176;-82
2022/10/06 11:11:06;;;;;;;5.45;2.97;;;;;;;19.35;47.33;95829.22;5110601;27;20660;-82
2022/10/06 11:13:41;;;;;;;4.43;2.38;;;;;;;19.41;45.30;95830.91;5095063;28;20235;-83
2022/10/06 11:16:21;;;;;;;5.00;2.20;;;;;;;19.86;46.23;95880.84;5109325;28;20631;-83
2022/10/06 11:18:56;;;;;;;2.88;1.98;;;;;;;19.92;39.98;95878.00;5107335;28;20173;-82
2022/10/06 11:21:26;;;;;;;3.65;1.77;;;;;;;19.83;39.15;95858.06;5113835;28;20161;-82
2022/10/06 11:24:01;;;;;;;2.38;1.35;;;;;;;19.94;39.08;95873.22;5113241;28;20169;-83
2022/10/06 11:26:43;;;;;;;2.22;1.20;;;;;;;20.03;38.89;95867.47;5111484;28;20258;-82
2022/10/06 11:29:18;;;;;;;2.90;1.60;;;;;;;20.09;40.79;95866.47;5111497;28;20288;-83
2022/10/06 11:32:05;;;;;;;1.65;1.30;;;;;;;20.08;37.64;95860.31;5110117;28;20188;-83
2022/10/06 11:34:30;;;;;;;1.42;0.93;;;;;;;20.05;37.54;95846.66;5110655;28;20208;-82
2022/10/06 11:36:55;;;;;;;3.22;0.95;;;;;;;20.13;36.89;95857.72;5111097;28;20679;-82
2022/10/06 11:39:35;;;;;;;2.35;1.42;;;;;;;20.19;37.96;95847.91;5092290;28;20273;-82
2022/10/06 11:42:15;;;;;;;2.78;1.13;;;;;;;20.23;35.18;95847.19;5113149;28;20161;-83
2022/10/06 11:44:55;;;;;;;1.63;1.02;;;;;;;20.28;34.34;95847.22;5095061;28;20221;-82
2022/10/06 11:47:32;;;;;;;4.32;1.40;;;;;;;20.30;33.00;95823.72;5113067;28;20212;-82
2022/10/06 11:49:57;;;;;;;3.67;1.52;;;;;;;20.15;36.52;95783.41;5113429;28;20171;-82
2022/10/06 11:52:23;;;;;;;2.55;1.42;;;;;;;20.59;33.15;95837.75;5113191;28;20189;-81
2022/10/06 11:54:48;;;;;;;7.20;1.42;;;;;;;20.61;32.71;95822.28;5113168;28;20675;-82